Time;durP1;ratioP1;P1;durP2;ratioP2;P2;SDS_P1;SDS_P2;PMS_P1;PMS_P2;Temp;Humidity;BMP_temperature;BMP_pressure;BME280_temperature;BME280_humidity;BME280_pressure;Samples;Min_cycle;Max_cycle;Signal;HPM_P1;HPM_P2
2023/10/22 00:00:09;;;;;;;4.88;0.90;;;11.70;99.90;;;11.37;100.00;99395.66;5020442;28;20457;-80
2023/10/22 00:02:39;;;;;;;2.78;0.73;;;11.70;99.90;;;11.38;100.00;99399.22;5037961;28;20041;-86
2023/10/22 00:05:06;;;;;;;2.83;1.00;;;11.80;99.90;;;11.31;100.00;99388.50;5018613;28;20041;-86
2023/10/22 00:07:35;;;;;;;3.05;1.00;;;11.70;99.90;;;11.47;100.00;99405.91;5019188;28;20099;-83
2023/10/22 00:10:02;;;;;;;5.10;1.00;;;11.80;99.90;;;11.39;100.00;99395.41;5014580;28;20091;-82
2023/10/22 00:12:28;;;;;;;2.28;0.77;;;11.80;99.90;;;11.31;100.00;99395.88;5013671;28;20026;-86
2023/10/22 00:14:54;;;;;;;2.70;1.00;;;11.80;99.90;;;11.30;100.00;99405.94;5021365;28;20053;-83
2023/10/22 00:17:19;;;;;;;4.72;1.00;;;11.70;99.90;;;11.31;100.00;99396.69;5023282;28;20489;-84
2023/10/22 00:19:46;;;;;;;4.95;1.00;;;11.70;99.90;;;11.39;100.00;99408.22;5012543;28;20048;-84
2023/10/22 00:22:14;;;;;;;3.47;1.15;;;11.70;99.90;;;11.41;100.00;99400.66;5029176;28;20030;-82
2023/10/22 00:24:41;;;;;;;2.92;0.90;;;11.70;99.90;;;11.47;100.00;99403.16;5024198;28;20045;-84
2023/10/22 00:27:07;;;;;;;3.22;1.02;;;11.80;99.90;;;11.54;100.00;99393.94;5041782;28;20029;-85
2023/10/22 00:29:33;;;;;;;3.47;0.88;;;11.90;99.90;;;11.58;100.00;99409.59;5025056;28;20453;-84
2023/10/22 00:31:58;;;;;;;3.25;0.95;;;12.00;99.90;;;11.63;100.00;99397.91;5036103;28;20029;-84
2023/10/22 00:34:24;;;;;;;3.03;0.77;;;12.00;99.90;;;11.56;100.00;99409.03;5024171;28;20149;-83
2023/10/22 00:36:50;;;;;;;3.05;0.98;;;12.00;99.90;;;11.59;100.00;99400.31;5021870;28;20045;-82
2023/10/22 00:39:16;;;;;;;4.32;0.90;;;12.10;99.90;;;11.48;100.00;99395.81;5044028;28;20515;-83
2023/10/22 00:41:42;;;;;;;2.55;0.73;;;12.00;99.90;;;11.21;100.00;99408.28;5028710;28;20110;-83
2023/10/22 00:44:08;;;;;;;2.00;0.80;;;11.90;99.90;;;11.49;100.00;99420.13;5017078;28;20069;-82
2023/10/22 00:46:35;;;;;;;3.30;0.82;;;11.90;99.90;;;11.43;100.00;99420.34;5015877;28;20033;-85
2023/10/22 00:49:02;;;;;;;3.85;0.82;;;11.90;99.90;;;11.40;100.00;99415.34;5029039;28;20131;-84
2023/10/22 00:51:28;;;;;;;3.58;0.80;;;11.80;99.90;;;11.35;100.00;99410.66;5000818;28;20489;-83
2023/10/22 00:53:54;;;;;;;3.53;0.68;;;11.70;99.90;;;11.35;100.00;99414.22;5018729;28;20065;-85
2023/10/22 00:56:22;;;;;;;3.10;0.82;;;11.70;99.90;;;11.32;100.00;99403.78;5029005;28;20034;-85
2023/10/22 00:58:49;;;;;;;2.28;0.80;;;11.80;99.90;;;11.49;100.00;99419.31;5012333;28;20037;-81
2023/10/22 01:01:16;;;;;;;4.05;0.95;;;11.90;99.90;;;11.36;100.00;99410.41;5013219;28;20033;-85
2023/10/22 01:03:42;;;;;;;4.25;1.10;;;11.90;99.90;;;11.43;100.00;99423.88;5017669;28;20037;-87
2023/10/22 01:06:08;;;;;;;2.88;0.75;;;11.90;99.90;;;11.36;100.00;99413.13;5028315;28;20041;-83
2023/10/22 01:08:37;;;;;;;2.28;0.88;;;11.90;99.90;;;11.54;100.00;99424.00;5019138;28;20517;-85
2023/10/22 01:11:08;;;;;;;5.65;1.10;;;12.00;99.90;;;11.49;100.00;99428.31;5023457;28;20042;-85
2023/10/22 01:13:34;;;;;;;5.90;0.93;;;12.00;99.90;;;11.48;100.00;99423.13;5024578;28;20169;-83
2023/10/22 01:16:00;;;;;;;5.78;0.82;;;11.90;99.90;;;11.37;100.00;99428.44;4997915;28;20041;-84
2023/10/22 01:18:26;;;;;;;3.13;1.10;;;11.90;99.90;;;11.35;100.00;99416.94;5023996;28;20072;-83
2023/10/22 01:20:52;;;;;;;2.75;0.70;;;11.80;99.90;;;11.27;100.00;99428.31;5034061;28;20041;-85
2023/10/22 01:23:18;;;;;;;4.03;0.90;;;11.70;99.90;;;11.13;100.00;99427.81;5026763;28;20092;-84
2023/10/22 01:25:44;;;;;;;6.10;1.08;;;11.60;99.90;;;11.06;100.00;99411.63;5030800;28;20025;-82
2023/10/22 01:28:10;;;;;;;2.65;0.90;;;11.50;99.90;;;11.06;100.00;99408.06;5014587;28;20038;-83
2023/10/22 01:30:36;;;;;;;5.40;0.90;;;11.50;99.90;;;11.19;100.00;99417.81;5018346;28;20033;-83
2023/10/22 01:33:03;;;;;;;4.57;0.93;;;11.60;99.90;;;11.20;100.00;99428.47;5011549;28;20444;-83
2023/10/22 01:35:29;;;;;;;2.15;0.65;;;11.60;99.90;;;11.17;100.00;99417.25;5026993;28;20025;-83
2023/10/22 01:37:55;;;;;;;5.63;1.00;;;11.60;99.90;;;10.98;100.00;99401.13;5019767;28;20409;-83
2023/10/22 01:40:21;;;;;;;5.65;1.05;;;11.70;99.90;;;11.27;100.00;99408.34;5016408;28;20095;-83
2023/10/22 01:42:47;;;;;;;3.35;0.80;;;11.70;99.90;;;11.33;100.00;99416.38;5021549;28;20034;-82
2023/10/22 01:45:13;;;;;;;5.07;0.95;;;11.70;99.90;;;11.21;100.00;99407.47;5016148;28;20038;-83
2023/10/22 01:47:39;;;;;;;1.85;0.75;;;11.80;99.90;;;11.19;100.00;99402.25;5018366;28;20030;-82
2023/10/22 01:50:06;;;;;;;3.40;0.88;;;11.70;99.90;;;11.21;100.00;99423.84;5026478;28;20046;-84
2023/10/22 01:52:32;;;;;;;2.30;0.80;;;11.60;99.90;;;11.11;100.00;99423.69;5016609;28;20025;-85
2023/10/22 01:54:58;;;;;;;3.13;0.80;;;11.60;99.90;;;11.08;100.00;99420.38;5033138;28;20054;-81
2023/10/22 01:57:24;;;;;;;3.50;1.00;;;11.60;99.90;;;10.95;100.00;99398.91;5034747;28;20052;-86
2023/10/22 01:59:53;;;;;;;4.97;0.90;;;11.50;99.90;;;10.78;100.00;99379.84;5040355;28;20069;-84
2023/10/22 02:02:18;;;;;;;4.95;0.90;;;11.40;99.90;;;10.86;100.00;99423.06;5017437;28;20030;-83
2023/10/22 02:04:44;;;;;;;3.65;0.98;;;11.30;99.90;;;10.76;100.00;99415.53;5011287;28;20091;-86
2023/10/22 02:07:13;;;;;;;3.45;0.82;;;11.20;99.90;;;10.92;100.00;99418.50;5016045;28;20045;-86
2023/10/22 02:09:38;;;;;;;3.83;0.90;;;11.30;99.90;;;10.83;100.00;99404.47;5010556;28;20033;-83
2023/10/22 02:12:05;;;;;;;4.15;1.00;;;11.30;99.90;;;10.82;100.00;99413.72;5017661;28;20045;-86
2023/10/22 02:14:31;;;;;;;3.55;0.90;;;11.20;99.90;;;10.82;100.00;99394.63;5022286;28;20599;-82
2023/10/22 02:16:59;;;;;;;2.30;0.82;;;11.30;99.90;;;11.15;100.00;99417.47;5022221;28;20038;-83
2023/10/22 02:19:26;;;;;;;4.38;0.82;;;11.60;99.90;;;11.16;100.00;99413.66;5028526;28;20153;-84
2023/10/22 02:21:53;;;;;;;2.08;0.63;;;11.60;99.90;;;11.17;100.00;99409.88;5023890;28;20073;-83
2023/10/22 02:24:19;;;;;;;2.35;0.80;;;11.60;99.90;;;11.07;100.00;99401.53;5026141;28;20029;-83
2023/10/22 02:26:46;;;;;;;4.85;1.10;;;11.60;99.90;;;10.95;100.00;99393.44;5013665;28;20038;-86
2023/10/22 02:29:13;;;;;;;3.33;0.90;;;11.50;99.90;;;10.95;100.00;99404.38;5024916;28;20038;-81
2023/10/22 02:31:42;;;;;;;2.45;0.70;;;11.40;99.90;;;10.88;100.00;99403.72;5029685;28;20378;-84
2023/10/22 02:34:08;;;;;;;3.20;0.90;;;11.30;99.90;;;10.69;100.00;99392.22;5024253;28;20974;-86
2023/10/22 02:36:35;;;;;;;4.85;0.93;;;11.20;99.90;;;10.72;100.00;99411.66;5012879;28;20037;-83
2023/10/22 02:39:04;;;;;;;4.18;0.85;;;11.10;99.90;;;10.73;100.00;99407.84;5025744;28;20042;-83
2023/10/22 02:41:30;;;;;;;3.78;0.95;;;11.20;99.90;;;10.65;100.00;99395.44;5023037;28;20120;-81
2023/10/22 02:43:57;;;;;;;3.90;0.80;;;11.20;99.90;;;10.74;100.00;99393.13;5016972;28;20030;-83
2023/10/22 02:46:23;;;;;;;2.40;0.80;;;11.20;99.90;;;10.76;100.00;99412.00;5031365;28;20057;-86
2023/10/22 02:48:49;;;;;;;4.25;0.88;;;11.30;99.90;;;10.86;100.00;99414.03;5027759;28;20038;-83
2023/10/22 02:51:15;;;;;;;3.22;0.90;;;11.30;99.90;;;10.93;100.00;99420.16;5019385;28;20040;-83
2023/10/22 02:53:40;;;;;;;5.53;1.40;;;11.40;99.90;;;10.88;100.00;99415.44;5021047;28;20180;-84
2023/10/22 02:56:09;;;;;;;3.78;0.95;;;11.30;99.90;;;10.83;100.00;99403.63;5012859;28;20481;-85
2023/10/22 02:58:38;;;;;;;2.58;0.70;;;11.30;99.90;;;10.87;100.00;99430.16;5012275;28;20026;-86
2023/10/22 03:01:10;;;;;;;1.88;0.60;;;11.20;99.90;;;10.73;100.00;99418.75;5031999;28;20124;-84
2023/10/22 03:03:40;;;;;;;4.03;0.85;;;11.20;99.90;;;10.78;100.00;99427.03;5035578;28;20124;-83
2023/10/22 03:06:08;;;;;;;5.28;0.88;;;11.20;99.90;;;10.65;100.00;99411.00;5013186;28;20039;-85
2023/10/22 03:08:37;;;;;;;3.67;0.90;;;11.20;99.90;;;10.88;100.00;99444.66;5033698;28;20413;-86
2023/10/22 03:11:03;;;;;;;4.50;0.90;;;11.20;99.90;;;10.71;100.00;99429.09;5035568;28;20041;-83
2023/10/22 03:13:29;;;;;;;2.38;0.80;;;11.10;99.90;;;10.87;100.00;99445.69;5024161;28;20040;-86
2023/10/22 03:15:55;;;;;;;2.97;0.85;;;11.20;99.90;;;10.74;100.00;99434.06;5016441;28;20038;-85
2023/10/22 03:18:22;;;;;;;3.13;0.80;;;11.10;99.90;;;10.77;100.00;99447.19;5021044;28;20447;-86
2023/10/22 03:20:50;;;;;;;2.92;0.70;;;11.10;99.90;;;10.74;100.00;99444.97;5003231;28;20123;-84
2023/10/22 03:23:16;;;;;;;4.80;0.88;;;11.00;99.90;;;10.66;100.00;99420.84;5023639;28;20530;-83
2023/10/22 03:25:43;;;;;;;4.32;0.77;;;11.10;99.90;;;10.82;100.00;99438.28;5007784;28;20034;-85
2023/10/22 03:28:10;;;;;;;2.67;0.70;;;11.20;99.90;;;10.81;100.00;99427.59;5015475;28;20045;-84
2023/10/22 03:30:39;;;;;;;7.20;1.27;;;11.30;99.90;;;10.78;100.00;99427.03;5033613;28;20290;-86
2023/10/22 03:33:05;;;;;;;2.90;0.60;;;11.30;99.90;;;10.93;100.00;99433.81;5004568;28;20233;-84
2023/10/22 03:35:31;;;;;;;6.50;0.95;;;11.40;99.90;;;10.93;100.00;99431.09;5037646;28;20045;-84
2023/10/22 03:38:00;;;;;;;5.70;1.00;;;11.40;99.90;;;10.99;100.00;99430.06;5013943;28;20042;-84
2023/10/22 03:40:26;;;;;;;2.80;0.80;;;11.40;99.90;;;10.92;100.00;99423.97;5032823;28;20033;-84
2023/10/22 03:42:52;;;;;;;4.05;0.77;;;11.40;99.90;;;10.82;100.00;99415.59;5029555;28;20030;-87
2023/10/22 03:45:17;;;;;;;3.72;0.80;;;11.40;99.90;;;10.94;100.00;99440.91;5020010;28;20103;-83
2023/10/22 03:47:43;;;;;;;2.83;0.77;;;11.40;99.90;;;10.98;100.00;99425.69;5015253;28;20034;-85
2023/10/22 03:50:09;;;;;;;4.35;0.90;;;11.40;99.90;;;10.98;100.00;99441.22;5034713;28;20041;-84
2023/10/22 03:52:35;;;;;;;4.05;0.82;;;11.40;99.90;;;11.00;100.00;99441.81;5023921;28;20072;-86
2023/10/22 03:55:00;;;;;;;2.83;1.02;;;11.50;99.90;;;10.97;100.00;99445.88;5038019;28;20792;-85
2023/10/22 03:57:26;;;;;;;3.15;0.80;;;11.40;99.90;;;10.90;100.00;99437.84;5025110;28;20042;-85
2023/10/22 03:59:52;;;;;;;2.90;0.85;;;11.30;99.90;;;10.77;100.00;99424.56;5023054;28;20124;-84
2023/10/22 04:02:18;;;;;;;3.28;0.70;;;11.30;99.90;;;10.90;100.00;99447.94;5030120;28;20026;-83
2023/10/22 04:04:43;;;;;;;5.07;0.85;;;11.30;99.90;;;10.89;100.00;99438.94;5026153;28;20474;-83
2023/10/22 04:07:11;;;;;;;4.88;1.30;;;11.40;99.90;;;10.94;100.00;99443.66;5013591;28;20390;-82
2023/10/22 04:09:37;;;;;;;4.47;0.85;;;11.40;99.90;;;11.01;100.00;99448.94;5027171;28;20595;-83
2023/10/22 04:12:03;;;;;;;3.88;0.80;;;11.40;99.90;;;10.94;100.00;99438.19;5028938;28;20167;-85
2023/10/22 04:14:29;;;;;;;4.95;0.82;;;11.40;99.90;;;10.92;100.00;99432.16;5030722;28;20044;-82
2023/10/22 04:16:55;;;;;;;7.72;1.20;;;11.40;99.90;;;10.87;100.00;99423.88;5022132;28;20045;-83
2023/10/22 04:19:20;;;;;;;5.15;1.02;;;11.40;99.90;;;11.03;100.00;99447.59;5026431;28;20091;-83
2023/10/22 04:21:46;;;;;;;4.30;0.90;;;11.40;99.90;;;11.06;100.00;99435.38;5019901;28;20165;-82
2023/10/22 04:24:12;;;;;;;4.03;0.80;;;11.40;99.90;;;11.10;100.00;99452.06;5019452;28;20037;-86
2023/10/22 04:26:37;;;;;;;3.83;0.88;;;11.40;99.90;;;11.05;100.00;99453.63;5017419;28;20045;-84
2023/10/22 04:29:03;;;;;;;4.63;1.27;;;11.40;99.90;;;10.93;100.00;99439.25;5035933;28;20050;-87
2023/10/22 04:31:29;;;;;;;4.85;1.20;;;11.40;99.90;;;10.84;100.00;99438.84;5025852;28;20033;-84
2023/10/22 04:33:55;;;;;;;4.68;1.08;;;11.30;99.90;;;10.91;100.00;99457.78;5027840;28;20486;-83
2023/10/22 04:36:21;;;;;;;4.47;0.80;;;11.20;99.90;;;10.83;100.00;99445.38;5025794;28;20048;-84
2023/10/22 04:38:50;;;;;;;3.30;0.90;;;11.20;99.90;;;10.87;100.00;99451.16;5029138;28;20037;-84
2023/10/22 04:41:16;;;;;;;4.40;0.80;;;11.20;99.90;;;10.83;100.00;99459.03;5014150;28;20437;-85
2023/10/22 04:43:42;;;;;;;4.20;0.80;;;11.10;99.90;;;10.77;100.00;99454.56;5025997;28;20030;-84
2023/10/22 04:46:09;;;;;;;4.50;1.10;;;11.10;99.90;;;10.78;100.00;99462.47;5029505;28;20047;-84
2023/10/22 04:48:34;;;;;;;6.30;1.02;;;11.10;99.90;;;10.62;100.00;99446.94;5025619;28;20081;-84
2023/10/22 04:51:06;;;;;;;6.38;1.27;;;11.00;99.90;;;10.76;100.00;99463.81;5014403;28;20120;-85
2023/10/22 04:53:34;;;;;;;3.13;0.73;;;11.10;99.90;;;10.80;100.00;99467.72;5024312;28;20493;-79
2023/10/22 04:56:00;;;;;;;4.25;0.90;;;11.10;99.90;;;10.81;100.00;99463.06;5025076;28;21937;-81
2023/10/22 04:58:28;;;;;;;2.20;0.70;;;11.20;99.90;;;10.84;100.00;99462.56;5043586;28;20026;-81
2023/10/22 05:00:55;;;;;;;4.45;0.68;;;11.20;99.90;;;10.77;100.00;99449.09;5030313;28;20366;-81
2023/10/22 05:03:21;;;;;;;2.55;0.73;;;11.30;99.90;;;10.83;100.00;99455.44;5028982;28;20042;-85
2023/10/22 05:05:47;;;;;;;2.33;0.70;;;11.20;99.90;;;10.62;100.00;99441.50;5032247;28;20092;-81
2023/10/22 05:08:12;;;;;;;4.63;0.77;;;11.20;99.90;;;10.67;100.00;99457.94;5036168;28;20148;-81
2023/10/22 05:10:39;;;;;;;5.03;0.95;;;11.10;99.90;;;10.64;100.00;99461.16;5015272;28;20037;-81
2023/10/22 05:13:08;;;;;;;3.67;1.00;;;11.10;99.90;;;10.67;100.00;99457.94;5020795;28;20103;-82
2023/10/22 05:15:34;;;;;;;3.63;0.90;;;11.10;99.90;;;10.68;100.00;99470.50;5011431;28;20673;-80
2023/10/22 05:17:59;;;;;;;1.73;0.70;;;11.10;99.90;;;10.64;100.00;99472.06;5012058;28;20072;-81
2023/10/22 05:20:28;;;;;;;2.97;0.88;;;11.10;99.90;;;10.58;100.00;99471.16;5012271;28;20038;-79
2023/10/22 05:22:54;;;;;;;4.78;1.42;;;11.00;99.90;;;10.52;100.00;99474.88;5015363;28;20128;-79
2023/10/22 05:25:23;;;;;;;7.18;0.93;;;11.00;99.90;;;10.52;100.00;99483.03;5025161;28;20025;-80
2023/10/22 05:27:49;;;;;;;5.50;0.90;;;10.90;99.90;;;10.45;100.00;99493.25;5022799;28;20084;-79
2023/10/22 05:30:15;;;;;;;3.97;0.82;;;10.90;99.90;;;10.42;100.00;99485.56;5025322;28;20083;-83
2023/10/22 05:32:41;;;;;;;3.65;0.93;;;10.90;99.90;;;10.37;100.00;99486.28;5030159;28;20045;-81
2023/10/22 05:35:07;;;;;;;2.88;0.88;;;10.90;99.90;;;10.36;100.00;99488.16;5023299;28;20044;-79
2023/10/22 05:37:33;;;;;;;5.95;1.27;;;10.90;99.90;;;10.41;100.00;99487.47;5026729;28;20389;-79
2023/10/22 05:40:00;;;;;;;2.17;0.73;;;10.90;99.90;;;10.36;100.00;99481.91;5017340;28;20041;-78
2023/10/22 05:42:26;;;;;;;3.40;0.98;;;10.90;99.90;;;10.42;100.00;99489.13;5029931;28;20091;-79
2023/10/22 05:44:51;;;;;;;6.55;1.00;;;10.90;99.90;;;10.47;100.00;99489.22;5013606;28;20049;-78
2023/10/22 05:47:17;;;;;;;3.58;0.90;;;10.90;99.90;;;10.50;100.00;99499.63;5025753;28;20109;-78
2023/10/22 05:49:44;;;;;;;3.30;0.90;;;11.00;99.90;;;10.52;100.00;99502.13;5028626;28;20037;-79
2023/10/22 05:52:10;;;;;;;4.25;0.93;;;10.90;99.90;;;10.49;100.00;99510.81;5022314;28;20030;-78
2023/10/22 05:54:36;;;;;;;4.30;1.08;;;11.00;99.90;;;10.48;100.00;99518.16;5019724;28;20069;-79
2023/10/22 05:57:02;;;;;;;4.55;1.02;;;11.00;99.90;;;10.55;100.00;99509.81;5017557;28;20473;-80
2023/10/22 05:59:28;;;;;;;3.22;0.88;;;11.00;99.90;;;10.56;100.00;99529.72;5013633;28;20054;-79
2023/10/22 06:01:54;;;;;;;3.97;0.80;;;10.90;99.90;;;10.55;100.00;99522.63;5020386;28;20116;-78
2023/10/22 06:04:20;;;;;;;4.13;1.00;;;10.90;99.90;;;10.52;100.00;99521.22;5014274;28;20254;-78
2023/10/22 06:06:46;;;;;;;5.55;1.02;;;10.90;99.90;;;10.49;100.00;99519.81;5019953;28;20405;-79
2023/10/22 06:09:12;;;;;;;4.47;1.00;;;10.90;99.90;;;10.50;100.00;99528.81;5031237;28;20115;-79
2023/10/22 06:11:39;;;;;;;19.70;1.70;;;10.90;99.90;;;10.53;100.00;99538.41;5028112;28;20474;-78
2023/10/22 06:14:06;;;;;;;6.15;1.02;;;10.90;99.90;;;10.47;100.00;99535.56;5016390;28;20081;-79
2023/10/22 06:16:32;;;;;;;3.10;0.60;;;10.90;99.90;;;10.49;100.00;99544.34;5017224;28;20042;-77
2023/10/22 06:18:57;;;;;;;6.18;1.00;;;10.80;99.90;;;10.48;100.00;99544.59;5013272;28;20060;-78
2023/10/22 06:21:23;;;;;;;3.65;0.98;;;10.90;99.90;;;10.54;100.00;99553.69;5013389;28;20038;-78
2023/10/22 06:23:50;;;;;;;5.60;1.10;;;10.80;99.90;;;10.58;100.00;99555.69;5014554;28;20088;-80
2023/10/22 06:26:17;;;;;;;4.07;1.02;;;10.90;99.90;;;10.60;100.00;99555.44;5012733;28;20030;-79
2023/10/22 06:28:43;;;;;;;6.00;0.95;;;10.90;99.90;;;10.68;100.00;99552.34;5016745;28;20062;-78
2023/10/22 06:31:13;;;;;;;4.63;0.65;;;11.00;99.90;;;10.78;100.00;99565.34;5018870;28;20042;-77
2023/10/22 06:33:41;;;;;;;8.40;1.10;;;11.10;99.90;;;10.84;100.00;99571.69;5019148;28;20124;-78
2023/10/22 06:36:11;;;;;;;6.40;1.00;;;11.20;99.90;;;10.87;100.00;99560.28;5012548;28;20041;-78
2023/10/22 06:38:38;;;;;;;3.15;0.85;;;11.20;99.90;;;10.92;100.00;99557.69;5018213;28;20044;-78
2023/10/22 06:41:11;;;;;;;4.45;0.90;;;11.30;99.90;;;10.91;100.00;99559.56;5016919;28;20042;-78
2023/10/22 06:43:37;;;;;;;7.15;1.13;;;11.30;99.90;;;10.97;100.00;99570.56;5013068;28;20367;-78
2023/10/22 06:46:03;;;;;;;2.88;0.77;;;11.40;99.90;;;11.03;100.00;99575.88;5017249;28;20047;-78
2023/10/22 06:48:29;;;;;;;4.38;0.82;;;11.40;99.90;;;11.07;100.00;99582.50;5016937;28;20038;-79
2023/10/22 06:50:55;;;;;;;3.58;1.08;;;11.40;99.90;;;11.11;100.00;99593.75;5024116;28;20113;-78
2023/10/22 06:53:21;;;;;;;3.33;1.38;;;11.50;99.90;;;11.22;100.00;99597.50;5025890;28;20145;-78
2023/10/22 06:55:47;;;;;;;4.10;0.80;;;11.50;99.90;;;11.22;100.00;99592.03;5014176;28;20397;-78
2023/10/22 06:58:12;;;;;;;3.92;1.05;;;11.50;99.90;;;11.28;100.00;99599.22;5026137;28;20041;-78
2023/10/22 07:00:38;;;;;;;4.20;1.00;;;11.60;99.90;;;11.34;100.00;99602.88;5033919;28;20029;-77
2023/10/22 07:03:04;;;;;;;3.20;1.08;;;11.60;99.90;;;11.32;100.00;99615.94;5020603;28;20030;-79
2023/10/22 07:05:29;;;;;;;3.60;0.68;;;11.70;99.90;;;11.48;100.00;99619.75;5022207;28;20052;-80
2023/10/22 07:07:55;;;;;;;2.78;0.75;;;11.80;99.90;;;11.49;100.00;99635.88;5020737;28;20037;-78
2023/10/22 07:10:21;;;;;;;5.50;1.10;;;11.80;99.90;;;11.57;100.00;99629.19;5017030;28;20482;-79
2023/10/22 07:12:46;;;;;;;4.22;0.90;;;11.90;99.90;;;11.65;100.00;99625.22;5024238;28;20156;-79
2023/10/22 07:15:12;;;;;;;2.45;0.68;;;12.00;99.90;;;11.74;100.00;99626.44;5028776;28;20045;-82
2023/10/22 07:17:39;;;;;;;3.97;1.00;;;12.10;99.90;;;11.88;100.00;99634.31;5030001;28;20037;-79
2023/10/22 07:20:06;;;;;;;6.18;1.00;;;12.10;99.90;;;11.99;100.00;99629.81;5019002;28;20038;-80
2023/10/22 07:22:34;;;;;;;3.83;1.08;;;12.20;99.90;;;12.05;100.00;99634.31;5021169;28;20053;-79
2023/10/22 07:24:59;;;;;;;4.35;1.00;;;12.30;99.90;;;12.19;100.00;99641.06;5026388;28;20036;-80
2023/10/22 07:27:25;;;;;;;5.20;1.20;;;12.40;99.90;;;12.25;100.00;99636.50;5032924;28;20042;-80
2023/10/22 07:29:51;;;;;;;4.45;1.00;;;12.50;99.90;;;12.28;100.00;99646.13;5026074;28;20042;-81
2023/10/22 07:32:16;;;;;;;4.05;1.10;;;12.50;99.90;;;12.34;100.00;99647.84;5022343;28;20048;-80
2023/10/22 07:34:42;;;;;;;4.40;0.95;;;12.50;99.90;;;12.28;100.00;99648.84;5043797;28;20037;-79
2023/10/22 07:37:08;;;;;;;5.78;1.20;;;12.50;99.90;;;12.30;100.00;99652.97;5016847;28;20034;-79
2023/10/22 07:39:33;;;;;;;4.30;1.08;;;12.50;99.90;;;12.25;100.00;99650.16;5034312;28;20393;-78
2023/10/22 07:42:00;;;;;;;3.38;1.02;;;12.50;99.90;;;12.31;100.00;99653.81;5029914;28;20029;-80
2023/10/22 07:44:25;;;;;;;4.10;1.10;;;12.60;99.90;;;12.41;100.00;99658.59;5027517;28;20088;-79
2023/10/22 07:46:51;;;;;;;6.18;1.10;;;12.60;99.90;;;12.32;100.00;99655.47;5039429;28;20481;-78
2023/10/22 07:49:17;;;;;;;4.22;0.80;;;12.70;99.90;;;12.44;100.00;99658.91;5024362;28;20128;-79
2023/10/22 07:51:43;;;;;;;6.63;1.10;;;12.80;99.90;;;12.48;100.00;99653.75;5029622;28;20041;-83
2023/10/22 07:54:08;;;;;;;5.18;0.90;;;12.70;99.90;;;12.37;100.00;99663.72;5019491;28;20486;-80
2023/10/22 07:56:34;;;;;;;6.30;1.50;;;12.70;99.90;;;12.30;100.00;99669.38;5020057;28;20056;-79
2023/10/22 07:59:00;;;;;;;7.03;1.08;;;12.60;99.90;;;12.32;100.00;99663.66;5018146;28;20044;-79
2023/10/22 08:01:26;;;;;;;6.25;1.00;;;12.60;99.90;;;12.36;100.00;99668.41;5021979;28;20080;-81
2023/10/22 08:03:52;;;;;;;2.80;0.90;;;12.70;99.90;;;12.42;100.00;99666.53;5021699;28;20033;-80
2023/10/22 08:06:18;;;;;;;3.72;1.25;;;12.70;99.90;;;12.37;100.00;99653.63;5023259;28;20033;-80
2023/10/22 08:08:43;;;;;;;4.65;1.02;;;12.80;99.90;;;12.52;100.00;99660.38;5017501;28;20052;-78
2023/10/22 08:11:09;;;;;;;3.47;0.80;;;12.80;99.90;;;12.63;100.00;99672.28;5032123;28;20034;-81
2023/10/22 08:13:35;;;;;;;6.22;1.10;;;12.90;99.90;;;12.71;100.00;99668.28;5026809;28;20060;-80
2023/10/22 08:16:07;;;;;;;3.40;0.90;;;13.00;99.90;;;12.85;100.00;99674.19;5020722;28;20072;-82
2023/10/22 08:18:33;;;;;;;2.70;1.00;;;13.20;99.90;;;12.93;100.00;99679.19;5014671;28;20037;-81
2023/10/22 08:21:04;;;;;;;6.72;1.00;;;13.30;99.90;;;13.07;100.00;99671.41;5013558;28;20080;-79
2023/10/22 08:23:30;;;;;;;3.78;0.90;;;;;;;13.21;100.00;99686.38;5015110;28;20030;-78
2023/10/22 08:25:57;;;;;;;4.63;1.38;;;;;;;13.38;100.00;99691.72;5040462;28;20145;-79
2023/10/22 08:28:23;;;;;;;3.05;0.82;;;;;;;13.51;100.00;99682.28;5026127;28;20038;-79
2023/10/22 08:30:50;;;;;;;4.38;0.82;;;;;;;13.77;100.00;99678.94;5013978;28;20088;-79
2023/10/22 08:33:17;;;;;;;2.78;0.60;;;;;;;13.97;100.00;99674.69;5022851;28;20038;-80
2023/10/22 08:35:43;;;;;;;3.33;0.80;;;;;;;14.17;100.00;99685.81;5015338;28;20038;-78
2023/10/22 08:38:09;;;;;;;3.92;0.77;;;;;;;14.31;100.00;99699.06;5015594;28;20052;-80
2023/10/22 08:40:41;;;;;;;4.03;0.90;;;;;;;14.44;100.00;99703.25;5022114;28;20035;-79
2023/10/22 08:43:18;;;;;;;4.60;0.93;;;;;;;14.76;100.00;99716.91;5026249;28;20056;-81
2023/10/22 08:45:49;;;;;;;4.65;1.08;;;;;;;14.77;100.00;99723.22;5030030;28;20049;-83
2023/10/22 08:48:19;;;;;;;4.53;0.88;;;;;;;14.81;100.00;99730.66;5033141;28;20049;-81
2023/10/22 08:50:48;;;;;;;2.72;0.70;;;;;;;14.58;100.00;99720.06;5025572;28;20070;-80
2023/10/22 08:53:15;;;;;;;4.65;1.00;;;;;;;14.41;100.00;99736.72;5023163;28;20042;-81
2023/10/22 08:55:46;;;;;;;3.17;1.10;;;;;;;14.28;100.00;99741.56;5021276;28;20046;-81
2023/10/22 08:58:19;;;;;;;4.15;0.77;;;;;;;14.15;100.00;99745.59;5014177;28;20079;-81
2023/10/22 09:00:48;;;;;;;4.00;1.08;;;;;;;13.83;100.00;99749.19;5025232;28;20559;-79
2023/10/22 09:03:17;;;;;;;5.35;1.05;;;;;;;13.81;100.00;99754.91;5043573;28;20097;-77
2023/10/22 09:05:44;;;;;;;2.92;0.70;;;;;;;13.77;100.00;99750.19;5024314;28;20084;-79
2023/10/22 09:08:10;;;;;;;3.55;0.77;;;;;;;13.77;100.00;99762.00;5016682;28;20038;-80
2023/10/22 09:10:37;;;;;;;3.80;0.90;;;;;;;13.88;100.00;99760.19;5014950;28;20031;-79
2023/10/22 09:13:22;;;;;;;3.75;0.55;;;;;;;13.83;100.00;99762.88;5019032;28;20358;-80
2023/10/22 09:15:50;;;;;;;3.95;0.70;;;;;;;13.90;100.00;99766.25;5011512;28;20045;-80
2023/10/22 09:18:18;;;;;;;2.15;0.73;;;;;;;13.90;100.00;99774.47;5022504;28;20041;-78
2023/10/22 09:20:46;;;;;;;1.48;0.55;;;;;;;14.03;100.00;99770.47;5010949;28;20029;-79
2023/10/22 09:23:21;;;;;;;2.90;0.70;;;;;;;14.18;100.00;99780.72;5022530;28;20041;-79
2023/10/22 09:25:52;;;;;;;1.73;0.50;;;;;;;14.29;100.00;99767.06;5018461;28;20040;-81
2023/10/22 09:28:20;;;;;;;5.28;0.80;;;;;;;14.29;100.00;99780.78;5022008;28;20647;-80
2023/10/22 09:30:53;;;;;;;3.97;0.70;;;;;;;14.33;100.00;99779.22;5036660;28;20111;-78
2023/10/22 09:33:29;;;;;;;3.60;0.70;;;;;;;14.31;100.00;99778.63;5039551;28;20146;-78
2023/10/22 09:36:12;;;;;;;1.95;0.65;;;;;;;14.35;100.00;99777.03;5020724;28;20041;-80
2023/10/22 09:38:51;;;;;;;4.13;0.90;;;;;;;14.59;100.00;99782.13;5059380;28;20037;-79
2023/10/22 09:41:26;;;;;;;3.33;0.80;;;;;;;14.56;100.00;99788.13;5036790;28;20080;-79
2023/10/22 09:43:54;;;;;;;2.42;0.80;;;;;;;14.63;100.00;99791.47;5046740;28;20041;-81
2023/10/22 09:46:22;;;;;;;3.25;0.73;;;;;;;14.67;100.00;99796.16;5045245;28;20064;-78
2023/10/22 09:48:50;;;;;;;7.30;1.13;;;;;;;14.94;100.00;99799.91;5046582;28;20097;-79
2023/10/22 09:51:17;;;;;;;2.40;0.70;;;;;;;15.01;100.00;99794.19;5042626;28;20037;-79
2023/10/22 09:53:53;;;;;;;2.35;0.77;;;;;;;15.00;100.00;99803.53;5046472;28;20071;-79
2023/10/22 09:56:23;;;;;;;7.53;0.80;;;;;;;16.15;100.00;99814.56;5031609;28;20091;-79
2023/10/22 09:58:58;;;;;;;2.85;0.85;;;;;;;15.86;100.00;99819.75;5034975;28;20046;-80
2023/10/22 10:01:26;;;;;;;2.30;0.68;;;;;;;15.65;100.00;99816.94;5020308;28;20092;-79
2023/10/22 10:03:54;;;;;;;4.40;0.98;;;;;;;15.82;100.00;99825.78;5017420;28;20037;-79
2023/10/22 10:06:21;;;;;;;2.80;0.80;;;;;;;15.71;100.00;99826.84;5019445;28;20052;-78
2023/10/22 10:08:48;;;;;;;2.90;0.63;;;;;;;16.19;100.00;99832.19;5021552;28;20067;-79
2023/10/22 10:11:15;;;;;;;2.25;0.52;;;;;;;16.88;100.00;99831.00;5023512;28;20030;-81
2023/10/22 10:13:41;;;;;;;2.10;0.52;;;;;;;18.41;100.00;99829.69;5013864;28;20125;-81
2023/10/22 10:16:08;;;;;;;3.10;0.93;;;;;;;18.33;100.00;99822.84;5013251;28;20052;-81
2023/10/22 10:19:08;;;;;;;4.75;0.95;;;;;;;17.58;100.00;99829.41;5023948;28;20148;-82
2023/10/22 10:21:34;;;;;;;;;;;;;;;17.62;100.00;99824.97;5020420;28;20038;-81
2023/10/22 10:24:18;;;;;;;2.08;0.63;;;;;;;17.22;100.00;99816.59;5050637;28;20422;-82